CheckWX is a tool to help pilots better visualize weather data.  It is not intended as a substitute for an official pre-flight weather briefing.

15:01:55 UTC

KMCC METAR
Mc Clellan Airfield Airport
Sacramento, California, USA
Current

22 mins ago

KMCC 161440Z AUTO 14007KT 9SM CLR 20/14 A2988 RMK AO2
Observed
Jul-16 @ 14:40 UTC
Wind
  • 140° at 7 KTS
Visibility
9 SM
Flight Rules
VFR
Cloud Levels
  • Clear skies
Temperature
20°C / 68°F
Dewpoint
14°C / 57°F
Humidity
69%
Altimeter
29.88" Hg
Pressure
1011.82 hPa
Previous

1 hour ago

KMCC 161340Z AUTO 15006KT 9SM CLR 19/14 A2987 RMK AO2
Observed
Jul-16 @ 13:40 UTC
Wind
  • 150° at 6 KTS
Visibility
9 SM
Flight Rules
VFR
Cloud Levels
  • Clear skies
Temperature
19°C / 66°F
Dewpoint
14°C / 57°F
Humidity
73%
Altimeter
29.87" Hg
Pressure
1011.52 hPa
Previous

2 hours ago

KMCC 161320Z AUTO 15006KT 9SM CLR 18/14 A2986 RMK AO2
Observed
Jul-16 @ 13:20 UTC
Wind
  • 150° at 6 KTS
Visibility
9 SM
Flight Rules
VFR
Cloud Levels
  • Clear skies
Temperature
18°C / 64°F
Dewpoint
14°C / 57°F
Humidity
78%
Altimeter
29.86" Hg
Pressure
1011.22 hPa